createdAt,value
2018-07-28T00:00:49.397Z,68.77
2018-07-28T00:03:17.984Z,69.17
2018-07-28T00:05:46.844Z,69.89
2018-07-28T00:08:15.556Z,68.38
2018-07-28T00:10:44.121Z,69.37
2018-07-28T00:13:12.675Z,69.13
2018-07-28T00:15:41.236Z,68.78
2018-07-28T00:18:09.763Z,69.71
2018-07-28T00:20:38.331Z,69.02
2018-07-28T00:23:06.928Z,73.13
2018-07-28T00:25:38.989Z,73.50
2018-07-28T00:28:08.197Z,77.52
2018-07-28T00:30:36.760Z,72.93
2018-07-28T00:33:05.397Z,71.81
2018-07-28T00:35:33.948Z,70.48
2018-07-28T00:38:02.452Z,69.61
2018-07-28T00:40:31.001Z,70.13
2018-07-28T00:42:59.572Z,68.92
2018-07-28T00:45:28.488Z,69.07
2018-07-28T00:47:57.008Z,70.35
2018-07-28T00:50:25.544Z,72.37
2018-07-28T00:52:54.069Z,71.73
2018-07-28T00:55:22.608Z,70.14
2018-07-28T00:57:51.176Z,68.87
2018-07-28T01:00:20.224Z,68.23
2018-07-28T01:02:48.757Z,69.95
2018-07-28T01:05:17.301Z,70.78
2018-07-28T01:07:45.821Z,70.96
2018-07-28T01:10:14.416Z,71.81
2018-07-28T01:12:42.949Z,72.32
2018-07-28T01:15:12.769Z,71.98
2018-07-28T01:17:41.518Z,72.64
2018-07-28T01:20:11.673Z,71.98
2018-07-28T01:22:41.104Z,73.86
2018-07-28T01:25:11.304Z,71.86
2018-07-28T01:27:40.555Z,72.52
2018-07-28T01:30:11.423Z,71.75
2018-07-28T01:32:40.024Z,71.88
2018-07-28T01:35:09.368Z,73.10
2018-07-28T01:37:38.068Z,71.81
2018-07-28T01:40:07.025Z,73.00
2018-07-28T01:42:35.584Z,72.58
2018-07-28T01:45:04.280Z,72.27
2018-07-28T01:47:32.809Z,72.83
2018-07-28T01:50:01.411Z,73.86
2018-07-28T01:52:29.961Z,73.91
2018-07-28T01:54:59.609Z,75.41
2018-07-28T01:57:28.160Z,75.50
2018-07-28T01:59:56.721Z,74.76
2018-07-28T02:02:25.316Z,76.26
2018-07-28T02:04:53.868Z,75.59
2018-07-28T02:07:22.440Z,73.61
2018-07-28T02:09:50.957Z,74.76
2018-07-28T02:12:19.968Z,74.01
2018-07-28T02:14:48.598Z,74.75
2018-07-28T02:17:17.236Z,74.56
2018-07-28T02:19:45.924Z,75.28
2018-07-28T02:22:14.536Z,76.08
2018-07-28T02:24:43.096Z,76.15
2018-07-28T02:27:11.685Z,75.29
2018-07-28T02:29:40.237Z,75.37
2018-07-28T02:32:08.850Z,74.24
2018-07-28T02:34:42.384Z,74.03
2018-07-28T02:37:11.149Z,72.00
2018-07-28T02:39:39.680Z,71.93
2018-07-28T02:42:08.334Z,71.79
2018-07-28T02:44:36.859Z,71.69
2018-07-28T02:47:05.631Z,70.78
2018-07-28T02:49:34.181Z,71.46
2018-07-28T02:52:02.749Z,71.34
2018-07-28T02:54:31.301Z,74.30
2018-07-28T02:56:59.885Z,73.54
2018-07-28T02:59:28.457Z,72.11
2018-07-28T03:01:57.036Z,71.78
2018-07-28T03:04:25.592Z,71.91
2018-07-28T03:06:54.152Z,74.61
2018-07-28T03:09:22.794Z,73.67
2018-07-28T03:11:51.368Z,71.85
2018-07-28T03:14:19.912Z,69.78
2018-07-28T03:16:48.865Z,69.96
2018-07-28T03:19:17.409Z,70.67
2018-07-28T03:21:45.973Z,70.89
2018-07-28T03:24:14.644Z,70.31
2018-07-28T03:26:43.209Z,70.98
2018-07-28T03:29:11.764Z,71.97
2018-07-28T03:31:40.316Z,71.70
2018-07-28T03:34:08.936Z,70.82
2018-07-28T03:36:37.497Z,70.88
2018-07-28T03:39:08.792Z,71.78
2018-07-28T03:41:37.672Z,71.35
2018-07-28T03:44:06.352Z,69.64
2018-07-28T03:46:35.292Z,70.06
2018-07-28T03:49:04.245Z,70.51
2018-07-28T03:51:32.816Z,69.67
2018-07-28T03:54:01.348Z,72.33
2018-07-28T04:02:34.929Z,69.78
2018-07-28T04:05:03.524Z,69.81
2018-07-28T04:07:32.087Z,70.90
2018-07-28T04:10:00.984Z,70.94
2018-07-28T04:13:11.613Z,71.22
2018-07-28T04:15:40.240Z,70.62
2018-07-28T04:18:08.838Z,72.67
2018-07-28T04:20:37.365Z,73.32
2018-07-28T04:23:06.087Z,72.46
2018-07-28T04:25:34.630Z,71.40
2018-07-28T04:28:03.196Z,69.64
2018-07-28T04:30:31.761Z,68.65
2018-07-28T04:33:01.052Z,70.20
2018-07-28T04:35:29.578Z,70.05
2018-07-28T04:37:58.137Z,70.26
2018-07-28T04:40:26.696Z,68.70
2018-07-28T04:42:55.292Z,70.07
2018-07-28T04:45:23.840Z,69.17
2018-07-28T04:47:52.745Z,71.05
2018-07-28T04:50:21.279Z,70.47
2018-07-28T04:52:49.855Z,71.03
2018-07-28T04:55:18.446Z,70.59
2018-07-28T04:57:46.996Z,72.05
2018-07-28T05:00:15.564Z,70.88
2018-07-28T05:02:44.147Z,70.69
2018-07-28T05:05:13.056Z,71.30
2018-07-28T05:07:41.731Z,71.37
2018-07-28T05:10:10.680Z,71.08
2018-07-28T05:12:39.686Z,71.55
2018-07-28T05:15:08.416Z,71.87
2018-07-28T05:17:36.975Z,71.69
2018-07-28T05:20:06.011Z,71.13
2018-07-28T05:22:34.569Z,71.38
2018-07-28T05:25:03.108Z,71.62
2018-07-28T05:27:31.665Z,72.90
2018-07-28T05:30:00.265Z,72.53
2018-07-28T05:32:29.124Z,73.49
2018-07-28T05:34:57.680Z,75.93
2018-07-28T05:37:26.212Z,76.37
2018-07-28T05:39:54.968Z,79.41
2018-07-28T05:42:23.520Z,78.53
2018-07-28T05:44:52.092Z,79.60
2018-07-28T05:47:20.616Z,79.93
2018-07-28T05:49:49.164Z,79.78
2018-07-28T05:52:17.684Z,82.01
2018-07-28T05:54:46.249Z,79.41
2018-07-28T05:57:14.813Z,78.92
2018-07-28T05:59:43.394Z,82.02
2018-07-28T06:02:12.044Z,82.46
2018-07-28T06:04:40.553Z,80.02
2018-07-28T06:07:09.145Z,79.63
2018-07-28T06:09:37.730Z,78.27
2018-07-28T06:12:06.274Z,78.95
2018-07-28T06:14:34.841Z,79.36
2018-07-28T06:17:03.388Z,80.96
2018-07-28T06:19:31.941Z,79.61
2018-07-28T06:22:00.534Z,77.40
2018-07-28T06:24:29.489Z,78.35
2018-07-28T06:26:58.022Z,78.17
2018-07-28T06:29:26.588Z,78.18
2018-07-28T06:31:55.405Z,78.65
2018-07-28T06:34:23.949Z,78.31
2018-07-28T06:36:52.492Z,78.10
2018-07-28T06:39:21.133Z,76.54
2018-07-28T06:41:49.712Z,77.25
2018-07-28T06:44:20.795Z,77.83
2018-07-28T06:46:49.424Z,79.84
2018-07-28T06:49:17.988Z,80.07
2018-07-28T06:51:46.538Z,80.99
2018-07-28T06:54:15.165Z,81.46
2018-07-28T06:56:43.691Z,80.97
2018-07-28T06:59:12.413Z,78.57
2018-07-28T07:01:41.236Z,79.88
2018-07-28T07:04:09.796Z,80.49
2018-07-28T07:06:38.329Z,81.19
2018-07-28T07:09:09.804Z,79.06
2018-07-28T07:11:38.439Z,78.17
2018-07-28T07:14:07.090Z,77.46
2018-07-28T07:16:36.371Z,77.37
2018-07-28T07:19:04.995Z,77.29
2018-07-28T07:21:33.620Z,77.51
2018-07-28T07:24:02.216Z,76.89
2018-07-28T07:26:30.760Z,77.71
2018-07-28T07:28:59.312Z,77.28
2018-07-28T07:31:27.876Z,76.62
2018-07-28T07:33:56.454Z,76.89
2018-07-28T07:36:25.016Z,76.55
2018-07-28T07:38:53.546Z,75.89
2018-07-28T07:41:22.156Z,73.67
2018-07-28T07:43:50.796Z,72.58
2018-07-28T07:46:19.357Z,73.43
2018-07-28T07:48:48.273Z,73.11
2018-07-28T07:51:16.880Z,71.46
2018-07-28T07:53:45.406Z,70.44
2018-07-28T07:56:20.917Z,71.04
2018-07-28T07:58:49.739Z,70.48
2018-07-28T08:01:18.304Z,70.73
2018-07-28T08:03:49.751Z,68.28
2018-07-28T08:06:18.360Z,67.85
2018-07-28T08:08:47.012Z,68.63
2018-07-28T08:11:15.776Z,66.14
2018-07-28T08:13:46.047Z,64.50
2018-07-28T08:16:14.799Z,62.93
2018-07-28T08:18:43.342Z,63.21
2018-07-28T08:21:11.969Z,57.92
2018-07-28T08:23:46.509Z,58.07
2018-07-28T08:26:19.095Z,57.16
2018-07-28T08:28:47.942Z,56.15
2018-07-28T08:31:16.684Z,56.77
2018-07-28T08:33:50.523Z,56.40
2018-07-28T08:36:19.355Z,56.63
2018-07-28T08:38:47.912Z,56.97
2018-07-28T08:41:17.749Z,57.04
2018-07-28T08:43:48.275Z,57.93
2018-07-28T08:46:16.847Z,58.23
2018-07-28T08:48:46.784Z,58.42
2018-07-28T08:51:16.286Z,58.23
2018-07-28T08:53:47.144Z,58.46
2018-07-28T08:56:15.707Z,58.54
2018-07-28T08:58:44.263Z,57.96
2018-07-28T09:01:12.832Z,57.30
2018-07-28T09:03:42.632Z,58.09
2018-07-28T09:06:11.368Z,58.67
2018-07-28T09:08:39.928Z,58.97
2018-07-28T09:11:08.529Z,58.10
2018-07-28T09:13:37.614Z,57.56
2018-07-28T09:16:06.291Z,57.65
2018-07-28T09:18:34.816Z,58.40
2018-07-28T09:21:03.502Z,57.79
2018-07-28T09:23:32.060Z,58.01
2018-07-28T09:26:00.615Z,57.96
2018-07-28T09:28:29.163Z,58.81
2018-07-28T09:30:57.749Z,58.34
2018-07-28T09:33:26.292Z,59.17
2018-07-28T09:35:54.885Z,58.14
2018-07-28T09:38:23.440Z,57.65
2018-07-28T09:40:52.041Z,57.78
2018-07-28T09:43:20.613Z,57.71
2018-07-28T09:45:49.190Z,58.10
2018-07-28T09:48:17.733Z,57.11
2018-07-28T09:50:46.457Z,56.14
2018-07-28T09:53:20.503Z,56.49
2018-07-28T09:55:51.364Z,57.35
2018-07-28T09:58:22.629Z,56.37
2018-07-28T10:00:59.401Z,55.31
2018-07-28T10:03:30.016Z,55.14
2018-07-28T10:06:00.506Z,55.41
2018-07-28T10:08:34.902Z,54.52
2018-07-28T10:11:08.308Z,55.21
2018-07-28T10:13:43.279Z,54.46
2018-07-28T10:16:17.392Z,54.93
2018-07-28T10:18:49.578Z,55.58
2018-07-28T10:21:21.309Z,57.75
2018-07-28T10:23:52.164Z,57.26
2018-07-28T10:26:23.476Z,57.34
2018-07-28T10:28:53.372Z,57.26
2018-07-28T10:31:28.452Z,58.18
2018-07-28T10:34:03.146Z,58.15
2018-07-28T10:36:32.766Z,56.00
2018-07-28T10:39:04.061Z,54.36
2018-07-28T10:41:38.830Z,54.90
2018-07-28T10:44:11.079Z,55.04
2018-07-28T10:46:41.599Z,53.14
2018-07-28T10:49:15.353Z,54.13
2018-07-28T10:51:51.430Z,53.39
2018-07-28T10:54:28.738Z,53.14
2018-07-28T10:57:02.854Z,53.18
2018-07-28T10:59:35.059Z,53.99
2018-07-28T11:02:09.106Z,54.34
2018-07-28T11:04:39.482Z,53.13
2018-07-28T11:07:12.968Z,51.07
2018-07-28T11:09:43.668Z,49.25
2018-07-28T11:12:12.878Z,51.01
2018-07-28T11:14:42.812Z,52.20
2018-07-28T11:17:16.191Z,52.16
2018-07-28T11:19:56.076Z,50.67
2018-07-28T11:22:28.851Z,51.27
2018-07-28T11:25:01.925Z,52.29
2018-07-28T11:27:39.393Z,51.97
2018-07-28T11:30:13.038Z,50.75
2018-07-28T11:32:56.416Z,50.72
2018-07-28T11:35:36.167Z,49.87
2018-07-28T11:38:21.135Z,47.63
2018-07-28T11:41:00.857Z,47.34
2018-07-28T11:43:41.494Z,47.18
2018-07-28T11:46:10.065Z,46.35
2018-07-28T11:48:38.837Z,47.68
2018-07-28T11:51:14.009Z,48.35
2018-07-28T11:53:42.713Z,48.28
2018-07-28T11:56:11.922Z,49.04
2018-07-28T11:58:41.649Z,47.61
2018-07-28T12:01:10.216Z,46.99
2018-07-28T12:03:41.909Z,46.41
2018-07-28T12:06:14.533Z,46.36
2018-07-28T12:08:50.796Z,46.38
2018-07-28T12:11:26.164Z,45.61
2018-07-28T12:14:07.898Z,43.91
2018-07-28T12:16:42.787Z,45.33
2018-07-28T12:19:15.523Z,45.43
2018-07-28T12:21:53.397Z,45.54
2018-07-28T12:24:22.330Z,45.32
2018-07-28T12:26:52.222Z,46.17
2018-07-28T12:29:20.776Z,43.98
2018-07-28T12:31:51.194Z,43.44
2018-07-28T12:34:19.827Z,43.04
2018-07-28T12:36:53.949Z,44.26
2018-07-28T12:39:28.941Z,43.45
2018-07-28T12:42:04.717Z,43.80
2018-07-28T12:44:44.967Z,43.38
2018-07-28T12:47:24.630Z,42.61
2018-07-28T12:49:59.474Z,42.01
2018-07-28T12:52:36.237Z,42.18
2018-07-28T12:55:05.369Z,42.49
2018-07-28T12:57:38.398Z,42.16
2018-07-28T13:00:07.334Z,40.70
2018-07-28T13:02:40.031Z,41.14
2018-07-28T13:05:09.587Z,40.25
2018-07-28T13:07:38.604Z,40.38
2018-07-28T13:10:16.163Z,41.78
2018-07-28T13:12:44.913Z,40.98
2018-07-28T13:15:13.875Z,41.32
2018-07-28T13:17:49.812Z,41.34
2018-07-28T13:20:23.170Z,40.99
2018-07-28T13:22:53.462Z,41.50
2018-07-28T13:25:24.192Z,40.92
2018-07-28T13:27:53.031Z,40.68
2018-07-28T13:30:21.557Z,40.59
2018-07-28T13:32:51.396Z,40.15
2018-07-28T13:35:20.184Z,39.60
2018-07-28T13:37:48.781Z,39.25
2018-07-28T13:40:19.482Z,39.69
2018-07-28T13:42:48.600Z,40.60
2018-07-28T13:45:18.296Z,40.00
2018-07-28T13:47:47.313Z,39.68
2018-07-28T13:50:19.061Z,39.12
2018-07-28T13:52:47.929Z,36.99
2018-07-28T13:55:16.781Z,35.95
2018-07-28T13:57:45.385Z,35.81
2018-07-28T14:00:13.936Z,34.67
2018-07-28T14:02:42.595Z,33.04
2018-07-28T14:05:16.897Z,35.27
2018-07-28T14:07:45.526Z,37.18
2018-07-28T14:10:14.097Z,37.13
2018-07-28T14:12:42.660Z,36.89
2018-07-28T14:15:11.240Z,36.69
2018-07-28T14:17:39.864Z,37.90
2018-07-28T14:20:08.393Z,37.14
2018-07-28T14:22:37.469Z,37.48
2018-07-28T14:25:06.749Z,36.37
2018-07-28T14:27:35.455Z,35.62
2018-07-28T14:30:04.097Z,34.98
2018-07-28T14:32:32.672Z,34.97
2018-07-28T14:35:01.241Z,34.70
2018-07-28T14:37:29.784Z,33.87
2018-07-28T14:39:58.417Z,34.75
2018-07-28T14:42:27.145Z,35.04
2018-07-28T14:44:56.764Z,35.75
2018-07-28T14:47:25.388Z,36.15
2018-07-28T14:49:56.891Z,36.55
2018-07-28T14:52:25.959Z,36.22
2018-07-28T14:54:55.314Z,36.99
2018-07-28T14:57:30.777Z,37.86
2018-07-28T15:00:08.337Z,37.71
2018-07-28T15:02:38.121Z,38.86
2018-07-28T15:05:07.180Z,39.51
2018-07-28T15:07:35.728Z,38.65
2018-07-28T15:10:05.948Z,38.69
2018-07-28T15:12:41.127Z,39.00
2018-07-28T15:15:10.050Z,39.86
2018-07-28T15:17:38.581Z,40.02
2018-07-28T15:20:07.190Z,38.93
2018-07-28T15:22:35.841Z,40.54
2018-07-28T15:25:04.455Z,40.86
2018-07-28T15:27:33.001Z,41.40
2018-07-28T15:30:02.212Z,41.79
2018-07-28T15:32:38.612Z,41.12
2018-07-28T15:35:14.469Z,40.56
2018-07-28T15:37:49.267Z,40.42
2018-07-28T15:40:24.797Z,41.92
2018-07-28T15:42:59.882Z,41.92
2018-07-28T15:45:34.688Z,42.45
2018-07-28T15:48:09.830Z,42.56
2018-07-28T15:50:42.888Z,42.61
2018-07-28T15:53:17.259Z,42.32
2018-07-28T15:55:52.853Z,42.41
2018-07-28T15:58:27.326Z,41.54
2018-07-28T16:01:04.024Z,41.50
2018-07-28T16:03:38.950Z,41.80
2018-07-28T16:06:14.028Z,40.44
2018-07-28T16:08:51.762Z,40.70
2018-07-28T16:11:25.644Z,41.08
2018-07-28T16:14:00.387Z,41.32
2018-07-28T16:16:35.032Z,40.03
2018-07-28T16:19:10.366Z,40.44
2018-07-28T16:21:45.191Z,41.41
2018-07-28T16:24:20.013Z,41.20
2018-07-28T16:26:54.639Z,41.06
2018-07-28T16:29:29.709Z,40.37
2018-07-28T16:32:03.873Z,40.38
2018-07-28T16:34:40.100Z,40.22
2018-07-28T16:37:15.335Z,39.81
2018-07-28T16:39:50.744Z,38.68
2018-07-28T16:42:26.441Z,39.68
2018-07-28T16:45:01.250Z,39.14
2018-07-28T16:47:34.411Z,39.42
2018-07-28T16:50:08.177Z,39.86
2018-07-28T16:52:43.117Z,39.91
2018-07-28T16:55:16.274Z,39.25
2018-07-28T16:57:49.018Z,39.25
2018-07-28T17:00:24.665Z,40.13
2018-07-28T17:02:56.062Z,40.18
2018-07-28T17:05:28.626Z,39.80
2018-07-28T17:07:59.918Z,35.41
2018-07-28T17:10:34.842Z,38.00
2018-07-28T17:13:09.604Z,38.41
2018-07-28T17:15:42.372Z,39.87
2018-07-28T17:18:15.696Z,40.17
2018-07-28T17:20:44.572Z,39.80
2018-07-28T17:23:14.132Z,39.89
2018-07-28T17:25:43.243Z,39.65
2018-07-28T17:28:11.893Z,40.52
2018-07-28T17:30:40.524Z,34.71
2018-07-28T17:33:14.871Z,33.52
2018-07-28T17:35:43.571Z,35.42
2018-07-28T17:38:12.097Z,35.66
2018-07-28T17:40:41.833Z,36.72
2018-07-28T17:43:10.477Z,35.44
2018-07-28T17:45:40.125Z,33.56
2018-07-28T17:48:09.779Z,33.65
2018-07-28T17:50:39.710Z,33.75
2018-07-28T17:53:08.601Z,36.34
2018-07-28T17:55:37.364Z,37.25
2018-07-28T17:58:05.938Z,33.26
2018-07-28T18:00:34.505Z,31.27
2018-07-28T18:03:03.244Z,31.52
2018-07-28T18:05:31.801Z,30.24
2018-07-28T18:08:00.312Z,31.63
2018-07-28T18:10:28.876Z,30.62
2018-07-28T18:12:58.524Z,30.36
2018-07-28T18:15:27.393Z,31.00
2018-07-28T18:17:55.954Z,32.20
2018-07-28T18:20:27.720Z,37.03
2018-07-28T18:22:57.908Z,37.81
2018-07-28T18:25:26.759Z,37.89
2018-07-28T18:27:55.501Z,36.98
2018-07-28T18:30:24.248Z,36.35
2018-07-28T18:32:54.884Z,37.77
2018-07-28T18:35:23.417Z,39.96
2018-07-28T18:37:53.623Z,41.18
2018-07-28T18:40:24.879Z,41.74
2018-07-28T18:42:54.451Z,42.88
2018-07-28T18:45:23.204Z,43.99
2018-07-28T18:47:52.028Z,43.91
2018-07-28T18:50:21.068Z,43.77
2018-07-28T18:52:49.654Z,43.48
2018-07-28T18:55:18.206Z,44.10
2018-07-28T18:57:47.946Z,44.42
2018-07-28T19:00:16.556Z,45.12
2018-07-28T19:02:45.164Z,45.05
2018-07-28T19:05:13.783Z,45.08
2018-07-28T19:07:43.553Z,44.56
2018-07-28T19:10:13.224Z,45.75
2018-07-28T19:12:48.619Z,45.79
2018-07-28T19:15:17.228Z,46.17
2018-07-28T19:17:51.056Z,46.46
2018-07-28T19:20:19.584Z,46.91
2018-07-28T19:22:54.066Z,47.58
2018-07-28T19:25:23.999Z,47.46
2018-07-28T19:27:58.578Z,48.35
2018-07-28T19:30:27.113Z,48.48
2018-07-28T19:32:55.671Z,48.67
2018-07-28T19:35:27.936Z,49.84
2018-07-28T19:37:57.256Z,49.62
2018-07-28T19:40:25.962Z,49.01
2018-07-28T19:42:54.883Z,49.60
2018-07-28T19:45:23.684Z,50.61
2018-07-28T19:47:52.265Z,50.18
2018-07-28T19:50:20.797Z,51.10
2018-07-28T19:52:49.356Z,51.50
2018-07-28T19:55:17.880Z,51.83
2018-07-28T19:57:46.590Z,52.20
2018-07-28T20:00:15.121Z,52.12
2018-07-28T20:02:43.684Z,51.60
2018-07-28T20:05:12.232Z,51.59
2018-07-28T20:07:41.092Z,52.17
2018-07-28T20:10:10.656Z,51.95
2018-07-28T20:12:39.752Z,51.94
2018-07-28T20:15:18.723Z,52.01
2018-07-28T20:17:47.721Z,51.78
2018-07-28T20:20:16.720Z,52.04
2018-07-28T20:22:45.276Z,52.45
2018-07-28T20:25:13.869Z,54.15
2018-07-28T20:27:43.200Z,55.78
2018-07-28T20:30:14.228Z,57.69
2018-07-28T20:32:44.705Z,59.36
2018-07-28T20:35:13.676Z,59.23
2018-07-28T20:37:42.256Z,58.33
2018-07-28T20:40:10.793Z,58.40
2018-07-28T20:42:39.401Z,59.35
2018-07-28T20:45:07.980Z,58.78
2018-07-28T20:47:36.544Z,59.86
2018-07-28T20:50:05.274Z,59.96
2018-07-28T20:52:34.157Z,59.84
2018-07-28T20:55:05.022Z,60.75
2018-07-28T20:57:33.835Z,60.04
2018-07-28T21:00:03.041Z,59.70
2018-07-28T21:02:31.569Z,60.19
2018-07-28T21:05:00.128Z,60.26
2018-07-28T21:07:28.660Z,61.16
2018-07-28T21:09:57.302Z,60.98
2018-07-28T21:12:26.096Z,60.33
2018-07-28T21:14:54.956Z,60.66
2018-07-28T21:17:23.880Z,62.01
2018-07-28T21:19:52.448Z,62.39
2018-07-28T21:22:21.225Z,62.19
2018-07-28T21:24:50.016Z,62.29
2018-07-28T21:27:18.559Z,62.15
2018-07-28T21:29:47.196Z,63.41
2018-07-28T21:32:15.728Z,63.93
2018-07-28T21:34:44.294Z,64.88
2018-07-28T21:37:12.813Z,63.84
2018-07-28T21:39:41.369Z,65.53
2018-07-28T21:42:09.964Z,65.92
2018-07-28T21:44:38.540Z,66.70
2018-07-28T21:47:07.096Z,65.27
2018-07-28T21:49:36.234Z,65.21
2018-07-28T21:52:04.764Z,66.93
2018-07-28T21:54:33.325Z,64.79
2018-07-28T21:57:01.897Z,66.38
2018-07-28T21:59:30.512Z,67.25
2018-07-28T22:01:59.036Z,68.42
2018-07-28T22:04:37.871Z,69.41
2018-07-28T22:07:06.684Z,68.62
2018-07-28T22:09:35.364Z,69.21
2018-07-28T22:12:04.765Z,71.23
2018-07-28T22:14:33.330Z,72.72
2018-07-28T22:17:01.869Z,70.54
2018-07-28T22:19:30.500Z,71.07
2018-07-28T22:21:59.041Z,71.64
2018-07-28T22:24:27.661Z,70.39
2018-07-28T22:26:56.738Z,71.20
2018-07-28T22:29:25.372Z,71.08
2018-07-28T22:31:53.892Z,69.75
2018-07-28T22:34:22.444Z,70.12
2018-07-28T22:36:50.993Z,69.76
2018-07-28T22:39:19.585Z,70.43
2018-07-28T22:41:48.191Z,70.76
2018-07-28T22:44:16.752Z,71.42
2018-07-28T22:46:45.309Z,71.23
2018-07-28T22:49:13.876Z,72.90
2018-07-28T22:51:42.437Z,70.19
2018-07-28T22:54:11.013Z,69.58
2018-07-28T22:56:39.545Z,70.49
2018-07-28T22:59:08.141Z,70.95
2018-07-28T23:01:37.029Z,69.98
2018-07-28T23:04:05.556Z,70.79
2018-07-28T23:06:34.119Z,71.01
2018-07-28T23:09:02.687Z,71.33
2018-07-28T23:11:31.269Z,71.29
2018-07-28T23:13:59.808Z,71.29
2018-07-28T23:16:28.374Z,71.56
2018-07-28T23:18:56.931Z,71.69
2018-07-28T23:21:25.496Z,72.09
2018-07-28T23:23:54.051Z,71.32
2018-07-28T23:26:22.627Z,71.18
2018-07-28T23:28:51.178Z,71.89
2018-07-28T23:31:19.776Z,71.08
2018-07-28T23:33:48.313Z,71.29
2018-07-28T23:36:16.863Z,71.93
2018-07-28T23:38:45.397Z,73.18
2018-07-28T23:41:13.981Z,72.08
2018-07-28T23:43:42.568Z,73.20
2018-07-28T23:46:11.167Z,73.44
2018-07-28T23:48:39.705Z,71.69
2018-07-28T23:51:08.276Z,72.56
2018-07-28T23:53:36.828Z,71.72
2018-07-28T23:56:05.475Z,72.15
2018-07-28T23:58:34.006Z,73.82
